sensor_id;sensor_type;location;lat;lon;timestamp;temperature;humidity
41630;DHT22;27322;49.488;8.480;2023-05-02T00:00:27;14.90;99.90
41630;DHT22;27322;49.488;8.480;2023-05-02T00:02:53;14.90;99.90
41630;DHT22;27322;49.488;8.480;2023-05-02T00:05:19;14.90;99.90
41630;DHT22;27322;49.488;8.480;2023-05-02T00:07:44;14.90;99.90
41630;DHT22;27322;49.488;8.480;2023-05-02T00:10:10;14.80;99.90
41630;DHT22;27322;49.488;8.480;2023-05-02T00:12:36;14.80;99.90
41630;DHT22;27322;49.488;8.480;2023-05-02T00:15:04;14.80;99.90
41630;DHT22;27322;49.488;8.480;2023-05-02T00:17:30;14.80;99.90
41630;DHT22;27322;49.488;8.480;2023-05-02T00:19:56;14.70;99.90
41630;DHT22;27322;49.488;8.480;2023-05-02T00:22:21;14.70;99.90
41630;DHT22;27322;49.488;8.480;2023-05-02T00:24:47;14.70;99.90
41630;DHT22;27322;49.488;8.480;2023-05-02T00:27:12;14.70;99.90
41630;DHT22;27322;49.488;8.480;2023-05-02T00:29:39;14.60;99.90
41630;DHT22;27322;49.488;8.480;2023-05-02T00:32:05;14.60;99.90
41630;DHT22;27322;49.488;8.480;2023-05-02T00:34:32;14.60;99.90
41630;DHT22;27322;49.488;8.480;2023-05-02T00:36:58;14.50;99.90
41630;DHT22;27322;49.488;8.480;2023-05-02T00:39:24;14.50;99.90
41630;DHT22;27322;49.488;8.480;2023-05-02T00:41:56;14.40;99.90
41630;DHT22;27322;49.488;8.480;2023-05-02T00:44:22;14.40;99.90
41630;DHT22;27322;49.488;8.480;2023-05-02T00:46:48;14.40;99.90
41630;DHT22;27322;49.488;8.480;2023-05-02T00:49:13;14.40;99.90
41630;DHT22;27322;49.488;8.480;2023-05-02T00:51:39;14.30;99.90
41630;DHT22;27322;49.488;8.480;2023-05-02T00:54:05;14.30;99.90
41630;DHT22;27322;49.488;8.480;2023-05-02T00:56:30;14.30;99.90
41630;DHT22;27322;49.488;8.480;2023-05-02T00:58:56;14.30;99.90
41630;DHT22;27322;49.488;8.480;2023-05-02T01:04:30;14.30;99.90
41630;DHT22;27322;49.488;8.480;2023-05-02T01:07:01;14.20;99.90
41630;DHT22;27322;49.488;8.480;2023-05-02T01:09:58;14.20;99.90
41630;DHT22;27322;49.488;8.480;2023-05-02T01:12:43;14.20;99.90
41630;DHT22;27322;49.488;8.480;2023-05-02T01:15:11;14.20;99.90
41630;DHT22;27322;49.488;8.480;2023-05-02T01:17:40;14.10;99.90
41630;DHT22;27322;49.488;8.480;2023-05-02T01:20:08;14.10;99.90
41630;DHT22;27322;49.488;8.480;2023-05-02T01:22:37;14.10;99.90
41630;DHT22;27322;49.488;8.480;2023-05-02T01:30:42;14.00;99.90
41630;DHT22;27322;49.488;8.480;2023-05-02T01:33:10;14.00;99.90
41630;DHT22;27322;49.488;8.480;2023-05-02T01:35:38;14.00;99.90
41630;DHT22;27322;49.488;8.480;2023-05-02T01:38:05;14.00;99.90
41630;DHT22;27322;49.488;8.480;2023-05-02T01:40:32;14.00;99.90
41630;DHT22;27322;49.488;8.480;2023-05-02T01:43:00;13.90;99.90
41630;DHT22;27322;49.488;8.480;2023-05-02T01:45:29;13.90;99.90
41630;DHT22;27322;49.488;8.480;2023-05-02T01:47:55;13.90;99.90
41630;DHT22;27322;49.488;8.480;2023-05-02T01:50:23;13.80;99.90
41630;DHT22;27322;49.488;8.480;2023-05-02T01:52:51;13.80;99.90
41630;DHT22;27322;49.488;8.480;2023-05-02T01:55:18;13.80;99.90
41630;DHT22;27322;49.488;8.480;2023-05-02T01:57:46;13.80;99.90
41630;DHT22;27322;49.488;8.480;2023-05-02T02:00:15;13.70;99.90
41630;DHT22;27322;49.488;8.480;2023-05-02T02:02:43;13.70;99.90
41630;DHT22;27322;49.488;8.480;2023-05-02T02:05:10;13.70;99.90
41630;DHT22;27322;49.488;8.480;2023-05-02T02:07:37;13.60;99.90
41630;DHT22;27322;49.488;8.480;2023-05-02T02:10:03;13.60;99.90
41630;DHT22;27322;49.488;8.480;2023-05-02T02:12:39;13.60;99.90
41630;DHT22;27322;49.488;8.480;2023-05-02T02:15:16;13.60;99.90
41630;DHT22;27322;49.488;8.480;2023-05-02T02:17:47;13.60;99.90
41630;DHT22;27322;49.488;8.480;2023-05-02T02:20:14;13.60;99.90
41630;DHT22;27322;49.488;8.480;2023-05-02T02:22:42;13.60;99.90
41630;DHT22;27322;49.488;8.480;2023-05-02T02:25:14;13.60;99.90
41630;DHT22;27322;49.488;8.480;2023-05-02T02:27:40;13.60;99.90
41630;DHT22;27322;49.488;8.480;2023-05-02T02:30:07;13.60;99.90
41630;DHT22;27322;49.488;8.480;2023-05-02T02:32:33;13.60;99.90
41630;DHT22;27322;49.488;8.480;2023-05-02T02:34:59;13.60;99.90
41630;DHT22;27322;49.488;8.480;2023-05-02T02:37:32;13.60;99.90
41630;DHT22;27322;49.488;8.480;2023-05-02T02:40:16;13.60;99.90
41630;DHT22;27322;49.488;8.480;2023-05-02T02:48:56;13.50;99.90
41630;DHT22;27322;49.488;8.480;2023-05-02T02:51:39;13.50;99.90
41630;DHT22;27322;49.488;8.480;2023-05-02T02:54:43;13.50;99.90
41630;DHT22;27322;49.488;8.480;2023-05-02T02:57:22;13.40;99.90
41630;DHT22;27322;49.488;8.480;2023-05-02T02:59:59;13.40;99.90
41630;DHT22;27322;49.488;8.480;2023-05-02T03:02:29;13.30;99.90
41630;DHT22;27322;49.488;8.480;2023-05-02T03:04:56;13.40;99.90
41630;DHT22;27322;49.488;8.480;2023-05-02T03:07:23;13.30;99.90
41630;DHT22;27322;49.488;8.480;2023-05-02T03:09:48;13.30;99.90
41630;DHT22;27322;49.488;8.480;2023-05-02T03:12:14;13.20;99.90
41630;DHT22;27322;49.488;8.480;2023-05-02T03:14:40;13.20;99.90
41630;DHT22;27322;49.488;8.480;2023-05-02T03:17:05;13.20;99.90
41630;DHT22;27322;49.488;8.480;2023-05-02T03:19:35;13.20;99.90
41630;DHT22;27322;49.488;8.480;2023-05-02T03:22:00;13.20;99.90
41630;DHT22;27322;49.488;8.480;2023-05-02T03:24:26;13.20;99.90
41630;DHT22;27322;49.488;8.480;2023-05-02T03:26:55;13.20;99.90
41630;DHT22;27322;49.488;8.480;2023-05-02T03:29:21;13.10;99.90
41630;DHT22;27322;49.488;8.480;2023-05-02T03:31:47;13.20;99.90
41630;DHT22;27322;49.488;8.480;2023-05-02T03:34:12;13.10;99.90
41630;DHT22;27322;49.488;8.480;2023-05-02T03:36:38;13.10;99.90
41630;DHT22;27322;49.488;8.480;2023-05-02T03:39:03;13.10;99.90
41630;DHT22;27322;49.488;8.480;2023-05-02T03:41:29;13.10;99.90
41630;DHT22;27322;49.488;8.480;2023-05-02T03:43:54;13.10;99.90
41630;DHT22;27322;49.488;8.480;2023-05-02T03:46:20;13.00;99.90
41630;DHT22;27322;49.488;8.480;2023-05-02T03:48:46;13.00;99.90
41630;DHT22;27322;49.488;8.480;2023-05-02T03:51:11;13.00;99.90
41630;DHT22;27322;49.488;8.480;2023-05-02T03:53:37;13.00;99.90
41630;DHT22;27322;49.488;8.480;2023-05-02T03:56:03;13.00;99.90
41630;DHT22;27322;49.488;8.480;2023-05-02T03:58:29;12.90;99.90
41630;DHT22;27322;49.488;8.480;2023-05-02T04:00:55;12.90;99.90
41630;DHT22;27322;49.488;8.480;2023-05-02T04:03:21;12.90;99.90
41630;DHT22;27322;49.488;8.480;2023-05-02T04:05:47;12.90;99.90
41630;DHT22;27322;49.488;8.480;2023-05-02T04:08:12;12.90;99.90
41630;DHT22;27322;49.488;8.480;2023-05-02T04:10:38;12.80;99.90
41630;DHT22;27322;49.488;8.480;2023-05-02T04:13:04;12.80;99.90
41630;DHT22;27322;49.488;8.480;2023-05-02T04:15:30;12.80;99.90
41630;DHT22;27322;49.488;8.480;2023-05-02T04:17:59;12.80;99.90
41630;DHT22;27322;49.488;8.480;2023-05-02T04:20:25;12.80;99.90
41630;DHT22;27322;49.488;8.480;2023-05-02T04:22:51;12.70;99.90
41630;DHT22;27322;49.488;8.480;2023-05-02T04:25:16;12.70;99.90
41630;DHT22;27322;49.488;8.480;2023-05-02T04:27:42;12.70;99.90
41630;DHT22;27322;49.488;8.480;2023-05-02T04:30:08;12.70;99.90
41630;DHT22;27322;49.488;8.480;2023-05-02T04:32:35;12.70;99.90
41630;DHT22;27322;49.488;8.480;2023-05-02T04:35:01;12.70;99.90
41630;DHT22;27322;49.488;8.480;2023-05-02T04:37:27;12.70;99.90
41630;DHT22;27322;49.488;8.480;2023-05-02T04:39:52;12.70;99.90
41630;DHT22;27322;49.488;8.480;2023-05-02T04:42:18;12.70;99.90
41630;DHT22;27322;49.488;8.480;2023-05-02T04:44:43;12.70;99.90
41630;DHT22;27322;49.488;8.480;2023-05-02T04:47:09;12.70;99.90
41630;DHT22;27322;49.488;8.480;2023-05-02T04:49:35;12.70;99.90
41630;DHT22;27322;49.488;8.480;2023-05-02T04:52:00;12.70;99.90
41630;DHT22;27322;49.488;8.480;2023-05-02T04:54:26;12.80;99.90
41630;DHT22;27322;49.488;8.480;2023-05-02T04:56:52;12.70;99.90
41630;DHT22;27322;49.488;8.480;2023-05-02T04:59:17;12.80;99.90
41630;DHT22;27322;49.488;8.480;2023-05-02T05:01:43;12.80;99.90
41630;DHT22;27322;49.488;8.480;2023-05-02T05:04:09;12.90;99.90
41630;DHT22;27322;49.488;8.480;2023-05-02T05:06:35;12.90;99.90
41630;DHT22;27322;49.488;8.480;2023-05-02T05:09:00;12.90;99.90
41630;DHT22;27322;49.488;8.480;2023-05-02T05:11:26;12.90;99.90
41630;DHT22;27322;49.488;8.480;2023-05-02T05:13:52;12.90;99.90
41630;DHT22;27322;49.488;8.480;2023-05-02T05:16:17;12.90;99.90
41630;DHT22;27322;49.488;8.480;2023-05-02T05:18:43;13.00;99.90
41630;DHT22;27322;49.488;8.480;2023-05-02T05:21:09;13.00;99.90
41630;DHT22;27322;49.488;8.480;2023-05-02T05:23:36;13.00;99.90
41630;DHT22;27322;49.488;8.480;2023-05-02T05:26:12;13.00;99.90
41630;DHT22;27322;49.488;8.480;2023-05-02T05:28:38;13.10;99.90
41630;DHT22;27322;49.488;8.480;2023-05-02T05:31:05;13.10;99.90
41630;DHT22;27322;49.488;8.480;2023-05-02T05:33:31;13.10;99.90
41630;DHT22;27322;49.488;8.480;2023-05-02T05:36:05;13.10;99.90
41630;DHT22;27322;49.488;8.480;2023-05-02T05:38:31;13.10;99.90
41630;DHT22;27322;49.488;8.480;2023-05-02T05:40:56;13.20;99.90
41630;DHT22;27322;49.488;8.480;2023-05-02T05:43:22;13.20;99.90
41630;DHT22;27322;49.488;8.480;2023-05-02T05:45:50;13.20;99.90
41630;DHT22;27322;49.488;8.480;2023-05-02T05:48:16;13.20;99.90
41630;DHT22;27322;49.488;8.480;2023-05-02T05:50:42;13.30;99.90
41630;DHT22;27322;49.488;8.480;2023-05-02T05:53:07;13.30;99.90
41630;DHT22;27322;49.488;8.480;2023-05-02T05:55:33;13.30;99.90
41630;DHT22;27322;49.488;8.480;2023-05-02T05:57:58;13.40;99.90
41630;DHT22;27322;49.488;8.480;2023-05-02T06:00:24;13.40;99.90
41630;DHT22;27322;49.488;8.480;2023-05-02T06:02:49;13.40;99.90
41630;DHT22;27322;49.488;8.480;2023-05-02T06:05:15;13.40;99.90
41630;DHT22;27322;49.488;8.480;2023-05-02T06:07:41;13.50;99.90
41630;DHT22;27322;49.488;8.480;2023-05-02T06:10:06;13.50;99.90
41630;DHT22;27322;49.488;8.480;2023-05-02T06:12:33;13.50;99.90
41630;DHT22;27322;49.488;8.480;2023-05-02T06:14:59;13.50;99.90
41630;DHT22;27322;49.488;8.480;2023-05-02T06:17:25;13.50;99.90
41630;DHT22;27322;49.488;8.480;2023-05-02T06:19:51;13.60;99.90
41630;DHT22;27322;49.488;8.480;2023-05-02T06:22:17;13.60;99.90
41630;DHT22;27322;49.488;8.480;2023-05-02T06:24:42;13.60;99.90
41630;DHT22;27322;49.488;8.480;2023-05-02T06:27:08;13.60;99.90
41630;DHT22;27322;49.488;8.480;2023-05-02T06:29:34;13.70;99.90
41630;DHT22;27322;49.488;8.480;2023-05-02T06:31:59;13.60;99.90
41630;DHT22;27322;49.488;8.480;2023-05-02T06:34:25;13.70;99.90
41630;DHT22;27322;49.488;8.480;2023-05-02T06:36:54;13.70;99.90
41630;DHT22;27322;49.488;8.480;2023-05-02T06:39:22;13.70;99.90
41630;DHT22;27322;49.488;8.480;2023-05-02T06:41:48;13.70;99.90
41630;DHT22;27322;49.488;8.480;2023-05-02T06:44:13;13.70;99.90
41630;DHT22;27322;49.488;8.480;2023-05-02T06:46:39;13.70;99.90
41630;DHT22;27322;49.488;8.480;2023-05-02T06:49:04;13.70;99.90
41630;DHT22;27322;49.488;8.480;2023-05-02T06:51:30;13.70;99.90
41630;DHT22;27322;49.488;8.480;2023-05-02T06:53:56;13.80;99.90
41630;DHT22;27322;49.488;8.480;2023-05-02T06:56:25;13.80;99.90
41630;DHT22;27322;49.488;8.480;2023-05-02T06:58:51;13.80;99.90
41630;DHT22;27322;49.488;8.480;2023-05-02T07:01:17;13.80;99.90
41630;DHT22;27322;49.488;8.480;2023-05-02T07:03:42;13.80;99.90
41630;DHT22;27322;49.488;8.480;2023-05-02T07:06:08;13.90;99.90
41630;DHT22;27322;49.488;8.480;2023-05-02T07:08:34;13.90;99.90
41630;DHT22;27322;49.488;8.480;2023-05-02T07:11:00;13.90;99.90
41630;DHT22;27322;49.488;8.480;2023-05-02T07:13:26;14.00;99.90
41630;DHT22;27322;49.488;8.480;2023-05-02T07:15:52;14.10;99.90
41630;DHT22;27322;49.488;8.480;2023-05-02T07:18:18;14.10;99.90
41630;DHT22;27322;49.488;8.480;2023-05-02T07:20:43;14.10;99.90
41630;DHT22;27322;49.488;8.480;2023-05-02T07:23:09;14.20;99.90
41630;DHT22;27322;49.488;8.480;2023-05-02T07:25:34;14.20;99.90
41630;DHT22;27322;49.488;8.480;2023-05-02T07:28:01;14.30;99.90
41630;DHT22;27322;49.488;8.480;2023-05-02T07:30:26;14.40;99.90
41630;DHT22;27322;49.488;8.480;2023-05-02T07:32:52;14.50;99.90
41630;DHT22;27322;49.488;8.480;2023-05-02T07:35:17;14.50;99.90
41630;DHT22;27322;49.488;8.480;2023-05-02T07:37:43;14.50;99.90
41630;DHT22;27322;49.488;8.480;2023-05-02T07:40:11;14.60;99.90
41630;DHT22;27322;49.488;8.480;2023-05-02T07:42:37;14.60;99.90
41630;DHT22;27322;49.488;8.480;2023-05-02T07:45:04;14.60;99.90
41630;DHT22;27322;49.488;8.480;2023-05-02T07:47:30;14.60;99.90
41630;DHT22;27322;49.488;8.480;2023-05-02T07:49:55;14.60;99.90
41630;DHT22;27322;49.488;8.480;2023-05-02T07:52:21;14.60;99.90
41630;DHT22;27322;49.488;8.480;2023-05-02T07:54:47;14.70;99.90
41630;DHT22;27322;49.488;8.480;2023-05-02T07:57:13;14.70;99.90
41630;DHT22;27322;49.488;8.480;2023-05-02T07:59:39;14.70;99.90
41630;DHT22;27322;49.488;8.480;2023-05-02T08:02:05;14.70;99.90
41630;DHT22;27322;49.488;8.480;2023-05-02T08:04:31;14.80;99.90
41630;DHT22;27322;49.488;8.480;2023-05-02T08:06:57;14.80;99.90
41630;DHT22;27322;49.488;8.480;2023-05-02T08:09:22;14.90;99.90
41630;DHT22;27322;49.488;8.480;2023-05-02T08:11:48;15.10;99.90
41630;DHT22;27322;49.488;8.480;2023-05-02T08:14:14;15.10;99.90
41630;DHT22;27322;49.488;8.480;2023-05-02T08:16:40;15.10;99.90
41630;DHT22;27322;49.488;8.480;2023-05-02T08:19:06;15.10;99.90
41630;DHT22;27322;49.488;8.480;2023-05-02T08:21:32;15.10;99.90
41630;DHT22;27322;49.488;8.480;2023-05-02T08:23:58;15.10;99.90
41630;DHT22;27322;49.488;8.480;2023-05-02T08:26:24;15.20;99.90
41630;DHT22;27322;49.488;8.480;2023-05-02T08:28:50;15.10;99.90
41630;DHT22;27322;49.488;8.480;2023-05-02T08:31:16;15.10;99.90
41630;DHT22;27322;49.488;8.480;2023-05-02T08:33:42;15.10;99.90
41630;DHT22;27322;49.488;8.480;2023-05-02T08:36:12;15.10;99.90
41630;DHT22;27322;49.488;8.480;2023-05-02T08:38:38;15.20;99.90
41630;DHT22;27322;49.488;8.480;2023-05-02T08:41:09;15.20;99.90
41630;DHT22;27322;49.488;8.480;2023-05-02T08:43:37;15.40;99.90
41630;DHT22;27322;49.488;8.480;2023-05-02T08:46:04;15.40;99.90
41630;DHT22;27322;49.488;8.480;2023-05-02T08:48:32;15.50;99.90
41630;DHT22;27322;49.488;8.480;2023-05-02T08:51:00;15.50;99.90
41630;DHT22;27322;49.488;8.480;2023-05-02T08:53:28;15.50;99.90
41630;DHT22;27322;49.488;8.480;2023-05-02T08:55:54;15.60;99.90
41630;DHT22;27322;49.488;8.480;2023-05-02T08:58:20;15.60;99.90
41630;DHT22;27322;49.488;8.480;2023-05-02T09:00:47;15.50;99.90
41630;DHT22;27322;49.488;8.480;2023-05-02T09:03:32;15.50;99.90
41630;DHT22;27322;49.488;8.480;2023-05-02T09:06:15;15.50;99.90
41630;DHT22;27322;49.488;8.480;2023-05-02T09:08:43;15.50;99.90
41630;DHT22;27322;49.488;8.480;2023-05-02T09:11:10;15.40;99.90
41630;DHT22;27322;49.488;8.480;2023-05-02T09:16:08;15.30;99.90
41630;DHT22;27322;49.488;8.480;2023-05-02T09:21:12;15.30;99.90
41630;DHT22;27322;49.488;8.480;2023-05-02T09:23:43;15.30;99.90
41630;DHT22;27322;49.488;8.480;2023-05-02T09:26:23;15.40;99.90
41630;DHT22;27322;49.488;8.480;2023-05-02T09:28:52;15.50;99.90
41630;DHT22;27322;49.488;8.480;2023-05-02T09:33:45;15.50;99.90
41630;DHT22;27322;49.488;8.480;2023-05-02T09:36:15;15.50;99.90
41630;DHT22;27322;49.488;8.480;2023-05-02T09:38:42;15.50;99.90
41630;DHT22;27322;49.488;8.480;2023-05-02T09:41:08;15.40;99.90
41630;DHT22;27322;49.488;8.480;2023-05-02T09:43:34;15.50;99.90
41630;DHT22;27322;49.488;8.480;2023-05-02T09:48:27;15.50;99.90
41630;DHT22;27322;49.488;8.480;2023-05-02T09:50:53;15.50;99.90
41630;DHT22;27322;49.488;8.480;2023-05-02T09:53:19;15.50;99.90
41630;DHT22;27322;49.488;8.480;2023-05-02T09:55:45;15.50;99.90
41630;DHT22;27322;49.488;8.480;2023-05-02T09:58:23;15.40;99.90
41630;DHT22;27322;49.488;8.480;2023-05-02T10:00:49;15.30;99.90
41630;DHT22;27322;49.488;8.480;2023-05-02T10:03:18;15.30;99.90
41630;DHT22;27322;49.488;8.480;2023-05-02T10:05:45;15.30;99.90
41630;DHT22;27322;49.488;8.480;2023-05-02T10:08:12;15.20;99.90
41630;DHT22;27322;49.488;8.480;2023-05-02T10:10:40;15.10;99.90
41630;DHT22;27322;49.488;8.480;2023-05-02T10:13:09;15.10;99.90
41630;DHT22;27322;49.488;8.480;2023-05-02T10:15:42;15.10;99.90
41630;DHT22;27322;49.488;8.480;2023-05-02T10:18:11;15.00;99.90
41630;DHT22;27322;49.488;8.480;2023-05-02T10:20:43;15.00;99.90
41630;DHT22;27322;49.488;8.480;2023-05-02T10:23:14;15.00;99.90
41630;DHT22;27322;49.488;8.480;2023-05-02T10:25:41;15.00;99.90
41630;DHT22;27322;49.488;8.480;2023-05-02T10:28:09;15.00;99.90
41630;DHT22;27322;49.488;8.480;2023-05-02T10:30:35;15.00;99.90
41630;DHT22;27322;49.488;8.480;2023-05-02T10:33:02;15.10;99.90
41630;DHT22;27322;49.488;8.480;2023-05-02T10:35:28;15.20;99.90
41630;DHT22;27322;49.488;8.480;2023-05-02T10:37:55;15.40;99.90
41630;DHT22;27322;49.488;8.480;2023-05-02T10:40:22;15.60;99.90
41630;DHT22;27322;49.488;8.480;2023-05-02T10:42:48;16.00;99.90
41630;DHT22;27322;49.488;8.480;2023-05-02T10:45:33;16.60;99.90
41630;DHT22;27322;49.488;8.480;2023-05-02T10:48:16;16.90;99.90
41630;DHT22;27322;49.488;8.480;2023-05-02T10:50:46;16.90;99.90
41630;DHT22;27322;49.488;8.480;2023-05-02T10:58:39;16.90;99.90
41630;DHT22;27322;49.488;8.480;2023-05-02T11:01:37;16.90;99.90
41630;DHT22;27322;49.488;8.480;2023-05-02T11:04:08;16.80;99.90
41630;DHT22;27322;49.488;8.480;2023-05-02T11:11:48;16.50;99.90
41630;DHT22;27322;49.488;8.480;2023-05-02T11:19:25;16.30;99.90
41630;DHT22;27322;49.488;8.480;2023-05-02T11:21:51;16.30;99.90
41630;DHT22;27322;49.488;8.480;2023-05-02T11:24:37;16.30;99.90
41630;DHT22;27322;49.488;8.480;2023-05-02T11:30:05;16.30;99.90
41630;DHT22;27322;49.488;8.480;2023-05-02T11:35:19;16.30;99.90
41630;DHT22;27322;49.488;8.480;2023-05-02T11:37:58;16.30;99.90
41630;DHT22;27322;49.488;8.480;2023-05-02T11:40:25;16.40;99.90
41630;DHT22;27322;49.488;8.480;2023-05-02T11:42:52;16.40;99.90
41630;DHT22;27322;49.488;8.480;2023-05-02T11:45:18;16.40;99.90
41630;DHT22;27322;49.488;8.480;2023-05-02T11:47:45;16.40;99.90
41630;DHT22;27322;49.488;8.480;2023-05-02T11:50:11;16.50;99.90
41630;DHT22;27322;49.488;8.480;2023-05-02T11:52:39;16.50;99.90
41630;DHT22;27322;49.488;8.480;2023-05-02T11:55:05;16.60;99.90
41630;DHT22;27322;49.488;8.480;2023-05-02T11:57:34;16.60;99.90
41630;DHT22;27322;49.488;8.480;2023-05-02T12:00:00;16.70;99.90
41630;DHT22;27322;49.488;8.480;2023-05-02T12:02:36;16.70;99.90
41630;DHT22;27322;49.488;8.480;2023-05-02T12:05:06;16.70;99.90
41630;DHT22;27322;49.488;8.480;2023-05-02T12:07:39;16.70;99.90
41630;DHT22;27322;49.488;8.480;2023-05-02T12:10:06;16.60;99.90
41630;DHT22;27322;49.488;8.480;2023-05-02T12:12:32;16.60;99.90
41630;DHT22;27322;49.488;8.480;2023-05-02T12:15:05;16.60;99.90
41630;DHT22;27322;49.488;8.480;2023-05-02T12:17:32;16.60;99.90
41630;DHT22;27322;49.488;8.480;2023-05-02T12:19:59;16.60;99.90
41630;DHT22;27322;49.488;8.480;2023-05-02T12:22:27;16.60;99.90
41630;DHT22;27322;49.488;8.480;2023-05-02T12:24:53;16.60;99.90
41630;DHT22;27322;49.488;8.480;2023-05-02T12:27:18;16.50;99.90
41630;DHT22;27322;49.488;8.480;2023-05-02T12:29:46;16.50;99.90
41630;DHT22;27322;49.488;8.480;2023-05-02T12:32:13;16.50;99.90
41630;DHT22;27322;49.488;8.480;2023-05-02T12:34:39;16.50;99.90
41630;DHT22;27322;49.488;8.480;2023-05-02T12:37:05;16.40;99.90
41630;DHT22;27322;49.488;8.480;2023-05-02T12:41:59;16.50;99.90
41630;DHT22;27322;49.488;8.480;2023-05-02T12:44:39;16.50;99.90
41630;DHT22;27322;49.488;8.480;2023-05-02T12:47:06;16.50;99.90
41630;DHT22;27322;49.488;8.480;2023-05-02T12:49:32;16.50;99.90
41630;DHT22;27322;49.488;8.480;2023-05-02T12:51:58;16.50;99.90
41630;DHT22;27322;49.488;8.480;2023-05-02T12:54:24;16.50;99.90
41630;DHT22;27322;49.488;8.480;2023-05-02T12:56:51;16.60;99.90
41630;DHT22;27322;49.488;8.480;2023-05-02T12:59:30;16.60;99.90
41630;DHT22;27322;49.488;8.480;2023-05-02T13:01:56;16.60;99.90
41630;DHT22;27322;49.488;8.480;2023-05-02T13:04:35;16.60;99.90
41630;DHT22;27322;49.488;8.480;2023-05-02T13:07:01;16.70;99.90
41630;DHT22;27322;49.488;8.480;2023-05-02T13:09:26;16.60;99.90
41630;DHT22;27322;49.488;8.480;2023-05-02T13:11:52;16.70;99.90
41630;DHT22;27322;49.488;8.480;2023-05-02T13:14:18;16.80;99.90
41630;DHT22;27322;49.488;8.480;2023-05-02T13:16:44;16.70;99.90
41630;DHT22;27322;49.488;8.480;2023-05-02T13:19:09;16.80;99.90
41630;DHT22;27322;49.488;8.480;2023-05-02T13:21:35;16.80;99.90
41630;DHT22;27322;49.488;8.480;2023-05-02T13:24:01;16.80;99.90
41630;DHT22;27322;49.488;8.480;2023-05-02T13:26:28;16.80;99.90
41630;DHT22;27322;49.488;8.480;2023-05-02T13:28:54;16.90;99.90
41630;DHT22;27322;49.488;8.480;2023-05-02T13:31:20;16.80;99.90
41630;DHT22;27322;49.488;8.480;2023-05-02T13:33:46;16.80;99.90
41630;DHT22;27322;49.488;8.480;2023-05-02T13:36:11;16.90;99.90
41630;DHT22;27322;49.488;8.480;2023-05-02T13:38:37;16.80;99.90
41630;DHT22;27322;49.488;8.480;2023-05-02T13:41:03;16.90;99.90
41630;DHT22;27322;49.488;8.480;2023-05-02T13:43:29;16.90;99.90
41630;DHT22;27322;49.488;8.480;2023-05-02T13:45:55;16.80;99.90
41630;DHT22;27322;49.488;8.480;2023-05-02T13:48:20;16.90;99.90
41630;DHT22;27322;49.488;8.480;2023-05-02T13:50:46;16.90;99.90
41630;DHT22;27322;49.488;8.480;2023-05-02T13:53:11;16.90;99.90
41630;DHT22;27322;49.488;8.480;2023-05-02T13:55:37;16.90;99.90
41630;DHT22;27322;49.488;8.480;2023-05-02T13:58:03;16.90;99.90
41630;DHT22;27322;49.488;8.480;2023-05-02T14:00:29;16.90;99.90
41630;DHT22;27322;49.488;8.480;2023-05-02T14:02:54;17.00;99.90
41630;DHT22;27322;49.488;8.480;2023-05-02T14:05:20;17.10;99.90
41630;DHT22;27322;49.488;8.480;2023-05-02T14:07:45;17.10;99.90
41630;DHT22;27322;49.488;8.480;2023-05-02T14:10:11;17.20;99.90
41630;DHT22;27322;49.488;8.480;2023-05-02T14:12:37;17.40;99.90
41630;DHT22;27322;49.488;8.480;2023-05-02T14:15:03;17.60;99.90
41630;DHT22;27322;49.488;8.480;2023-05-02T14:17:28;17.70;99.90
41630;DHT22;27322;49.488;8.480;2023-05-02T14:19:55;17.80;99.90
41630;DHT22;27322;49.488;8.480;2023-05-02T14:22:21;17.70;99.90
41630;DHT22;27322;49.488;8.480;2023-05-02T14:24:50;17.70;99.90
41630;DHT22;27322;49.488;8.480;2023-05-02T14:27:15;17.60;99.90
41630;DHT22;27322;49.488;8.480;2023-05-02T14:29:47;17.60;99.90
41630;DHT22;27322;49.488;8.480;2023-05-02T14:32:13;17.50;99.90
41630;DHT22;27322;49.488;8.480;2023-05-02T14:34:39;17.40;99.90
41630;DHT22;27322;49.488;8.480;2023-05-02T14:37:05;17.30;99.90
41630;DHT22;27322;49.488;8.480;2023-05-02T14:39:30;17.30;99.90
41630;DHT22;27322;49.488;8.480;2023-05-02T14:41:56;17.20;99.90
41630;DHT22;27322;49.488;8.480;2023-05-02T14:44:21;17.20;99.90
41630;DHT22;27322;49.488;8.480;2023-05-02T14:46:47;17.20;99.90
41630;DHT22;27322;49.488;8.480;2023-05-02T14:49:13;17.10;99.90
41630;DHT22;27322;49.488;8.480;2023-05-02T14:51:38;17.10;99.90
41630;DHT22;27322;49.488;8.480;2023-05-02T14:54:05;17.10;99.90
41630;DHT22;27322;49.488;8.480;2023-05-02T14:56:32;17.10;99.90
41630;DHT22;27322;49.488;8.480;2023-05-02T14:58:57;17.10;99.90
41630;DHT22;27322;49.488;8.480;2023-05-02T15:01:23;17.10;99.90
41630;DHT22;27322;49.488;8.480;2023-05-02T15:03:49;17.10;98.60
41630;DHT22;27322;49.488;8.480;2023-05-02T15:06:16;17.10;99.10
41630;DHT22;27322;49.488;8.480;2023-05-02T15:08:42;17.10;99.90
41630;DHT22;27322;49.488;8.480;2023-05-02T15:11:09;17.10;99.90
41630;DHT22;27322;49.488;8.480;2023-05-02T15:13:35;17.10;99.60
41630;DHT22;27322;49.488;8.480;2023-05-02T15:16:01;17.10;99.50
41630;DHT22;27322;49.488;8.480;2023-05-02T15:18:27;17.10;99.90
41630;DHT22;27322;49.488;8.480;2023-05-02T15:20:53;17.10;99.10
41630;DHT22;27322;49.488;8.480;2023-05-02T15:23:18;17.10;98.80
41630;DHT22;27322;49.488;8.480;2023-05-02T15:25:44;17.10;98.20
41630;DHT22;27322;49.488;8.480;2023-05-02T15:28:09;17.10;97.50
41630;DHT22;27322;49.488;8.480;2023-05-02T15:30:35;17.10;97.50
41630;DHT22;27322;49.488;8.480;2023-05-02T15:33:01;17.10;97.30
41630;DHT22;27322;49.488;8.480;2023-05-02T15:35:27;17.10;96.90
41630;DHT22;27322;49.488;8.480;2023-05-02T15:37:53;17.10;97.00
41630;DHT22;27322;49.488;8.480;2023-05-02T15:40:19;17.10;96.90
41630;DHT22;27322;49.488;8.480;2023-05-02T15:42:45;17.10;97.20
41630;DHT22;27322;49.488;8.480;2023-05-02T15:45:11;17.10;97.50
41630;DHT22;27322;49.488;8.480;2023-05-02T15:47:38;17.00;97.80
41630;DHT22;27322;49.488;8.480;2023-05-02T15:50:04;17.00;98.00
41630;DHT22;27322;49.488;8.480;2023-05-02T15:52:30;17.00;97.50
41630;DHT22;27322;49.488;8.480;2023-05-02T15:54:56;17.00;97.60
41630;DHT22;27322;49.488;8.480;2023-05-02T15:57:23;17.00;97.80
41630;DHT22;27322;49.488;8.480;2023-05-02T15:59:49;16.90;98.00
41630;DHT22;27322;49.488;8.480;2023-05-02T16:02:15;17.00;98.40
41630;DHT22;27322;49.488;8.480;2023-05-02T16:04:40;17.00;98.80
41630;DHT22;27322;49.488;8.480;2023-05-02T16:07:08;16.90;99.60
41630;DHT22;27322;49.488;8.480;2023-05-02T16:09:33;16.90;99.80
41630;DHT22;27322;49.488;8.480;2023-05-02T16:11:59;16.90;99.90
41630;DHT22;27322;49.488;8.480;2023-05-02T16:14:26;16.90;99.90
41630;DHT22;27322;49.488;8.480;2023-05-02T16:16:53;16.90;99.90
41630;DHT22;27322;49.488;8.480;2023-05-02T16:19:19;16.90;99.90